createdAt,value
2022-10-23T00:00:26.437Z,1011.98
2022-10-23T00:01:26.345Z,1011.96
2022-10-23T00:02:26.403Z,1011.92
2022-10-23T00:03:26.332Z,1011.88
2022-10-23T00:04:26.414Z,1011.87
2022-10-23T00:05:26.297Z,1011.82
2022-10-23T00:06:26.289Z,1011.86
2022-10-23T00:07:26.317Z,1011.88
2022-10-23T00:08:26.260Z,1011.82
2022-10-23T00:09:26.232Z,1011.80
2022-10-23T00:10:26.346Z,1011.77
2022-10-23T00:11:26.220Z,1011.76
2022-10-23T00:12:26.189Z,1011.74
2022-10-23T00:13:26.197Z,1011.78
2022-10-23T00:14:26.186Z,1011.74
2022-10-23T00:15:26.147Z,1011.74
2022-10-23T00:16:26.254Z,1011.73
2022-10-23T00:17:26.140Z,1011.69
2022-10-23T00:18:26.121Z,1011.69
2022-10-23T00:19:26.094Z,1011.66
2022-10-23T00:20:26.093Z,1011.62
2022-10-23T00:21:26.059Z,1011.63
2022-10-23T00:22:26.189Z,1011.65
2022-10-23T00:23:26.043Z,1011.67
2022-10-23T00:24:26.028Z,1011.68
2022-10-23T00:25:26.022Z,1011.68
2022-10-23T00:26:26.012Z,1011.65
2022-10-23T00:27:25.984Z,1011.65
2022-10-23T00:28:26.013Z,1011.64
2022-10-23T00:29:25.957Z,1011.60
2022-10-23T00:30:25.949Z,1011.60
2022-10-23T00:31:25.937Z,1011.62
2022-10-23T00:32:25.979Z,1011.62
2022-10-23T00:33:25.901Z,1011.65
2022-10-23T00:34:26.013Z,1011.64
2022-10-23T00:35:25.889Z,1011.61
2022-10-23T00:36:25.863Z,1011.66
2022-10-23T00:37:25.866Z,1011.63
2022-10-23T00:38:25.856Z,1011.58
2022-10-23T00:39:25.838Z,1011.60
2022-10-23T00:40:25.869Z,1011.63
2022-10-23T00:41:25.787Z,1011.66
2022-10-23T00:42:25.791Z,1011.65
2022-10-23T00:43:25.770Z,1011.68
2022-10-23T00:44:25.764Z,1011.67
2022-10-23T00:45:25.751Z,1011.64
2022-10-23T00:46:25.789Z,1011.62
2022-10-23T00:47:25.720Z,1011.65
2022-10-23T00:48:25.723Z,1011.58
2022-10-23T00:49:25.702Z,1011.61
2022-10-23T00:50:25.668Z,1011.62
2022-10-23T00:51:25.662Z,1011.65
2022-10-23T00:52:25.762Z,1011.58
2022-10-23T00:53:25.639Z,1011.66
2022-10-23T00:54:25.799Z,1011.59
2022-10-23T00:55:25.599Z,1011.63
2022-10-23T00:56:25.612Z,1011.63
2022-10-23T00:57:25.599Z,1011.57
2022-10-23T00:58:25.668Z,1011.59
2022-10-23T00:59:25.562Z,1011.57
2022-10-23T01:00:25.530Z,1011.57
2022-10-23T01:01:25.595Z,1011.56
2022-10-23T01:02:25.562Z,1011.56
2022-10-23T01:03:25.483Z,1011.58
2022-10-23T01:04:25.582Z,1011.57
2022-10-23T01:05:25.478Z,1011.58
2022-10-23T01:06:25.484Z,1011.58
2022-10-23T01:07:25.432Z,1011.54
2022-10-23T01:08:25.434Z,1011.54
2022-10-23T01:09:25.403Z,1011.50
2022-10-23T01:10:25.502Z,1011.48
2022-10-23T01:11:25.394Z,1011.51
2022-10-23T01:12:25.363Z,1011.48
2022-10-23T01:13:25.367Z,1011.50
2022-10-23T01:14:25.348Z,1011.49
2022-10-23T01:15:25.324Z,1011.46
2022-10-23T01:16:25.448Z,1011.51
2022-10-23T01:17:25.295Z,1011.50
2022-10-23T01:18:25.288Z,1011.52
2022-10-23T01:19:25.281Z,1011.56
2022-10-23T01:20:25.269Z,1011.55
2022-10-23T01:21:25.235Z,1011.52
2022-10-23T01:23:25.221Z,1011.50
2022-10-23T01:24:25.208Z,1011.51
2022-10-23T01:25:25.234Z,1011.51
2022-10-23T01:26:25.182Z,1011.48
2022-10-23T01:27:25.158Z,1011.51
2022-10-23T01:28:25.203Z,1011.51
2022-10-23T01:29:25.130Z,1011.55
2022-10-23T01:30:25.119Z,1011.50
2022-10-23T01:31:25.112Z,1011.52
2022-10-23T01:32:25.089Z,1011.48
2022-10-23T01:33:25.092Z,1011.44
2022-10-23T01:34:25.203Z,1011.41
2022-10-23T01:35:25.057Z,1011.44
2022-10-23T01:36:25.039Z,1011.40
2022-10-23T01:37:25.027Z,1011.40
2022-10-23T01:38:25.024Z,1011.42
2022-10-23T01:39:24.991Z,1011.42
2022-10-23T01:40:25.037Z,1011.41
2022-10-23T01:41:24.963Z,1011.45
2022-10-23T01:42:24.969Z,1011.39
2022-10-23T01:43:24.947Z,1011.41
2022-10-23T01:44:24.924Z,1011.39
2022-10-23T01:45:24.917Z,1011.36
2022-10-23T01:46:24.956Z,1011.37
2022-10-23T01:47:24.902Z,1011.38
2022-10-23T01:48:24.890Z,1011.42
2022-10-23T01:49:24.855Z,1011.39
2022-10-23T01:50:24.849Z,1011.44
2022-10-23T01:51:24.838Z,1011.40
2022-10-23T01:52:24.935Z,1011.42
2022-10-23T01:53:24.834Z,1011.38
2022-10-23T01:54:24.799Z,1011.43
2022-10-23T01:55:24.780Z,1011.43
2022-10-23T01:56:24.779Z,1011.44
2022-10-23T01:57:24.756Z,1011.43
2022-10-23T01:58:24.864Z,1011.44
2022-10-23T01:59:24.740Z,1011.43
2022-10-23T02:00:24.698Z,1011.46
2022-10-23T02:01:24.842Z,1011.48
2022-10-23T02:02:24.781Z,1011.47
2022-10-23T02:03:24.679Z,1011.49
2022-10-23T02:04:24.703Z,1011.47
2022-10-23T02:05:24.639Z,1011.47
2022-10-23T02:06:24.619Z,1011.49
2022-10-23T02:07:24.639Z,1011.50
2022-10-23T02:08:24.614Z,1011.47
2022-10-23T02:09:24.590Z,1011.52
2022-10-23T02:10:24.704Z,1011.48
2022-10-23T02:11:24.578Z,1011.48
2022-10-23T02:12:24.665Z,1011.41
2022-10-23T02:13:24.554Z,1011.46
2022-10-23T02:14:24.539Z,1011.48
2022-10-23T02:15:24.511Z,1011.45
2022-10-23T02:16:24.528Z,1011.47
2022-10-23T02:17:24.473Z,1011.42
2022-10-23T02:18:24.464Z,1011.41
2022-10-23T02:19:24.468Z,1011.38
2022-10-23T02:20:24.433Z,1011.41
2022-10-23T02:21:24.437Z,1011.35
2022-10-23T02:22:24.555Z,1011.32
2022-10-23T02:23:24.404Z,1011.30
2022-10-23T02:24:24.382Z,1011.28
2022-10-23T02:25:24.382Z,1011.28
2022-10-23T02:26:24.369Z,1011.23
2022-10-23T02:27:24.347Z,1011.24
2022-10-23T02:28:24.383Z,1011.19
2022-10-23T02:29:24.313Z,1011.21
2022-10-23T02:30:24.295Z,1011.19
2022-10-23T02:31:24.322Z,1011.20
2022-10-23T02:32:24.286Z,1011.22
2022-10-23T02:33:24.272Z,1011.25
2022-10-23T02:34:24.288Z,1011.19
2022-10-23T02:35:24.243Z,1011.14
2022-10-23T02:36:24.222Z,1011.16
2022-10-23T02:37:24.212Z,1011.12
2022-10-23T02:38:24.189Z,1011.13
2022-10-23T02:39:24.193Z,1011.10
2022-10-23T02:40:24.303Z,1011.13
2022-10-23T02:41:24.159Z,1011.13
2022-10-23T02:42:24.130Z,1011.07
2022-10-23T02:43:24.143Z,1011.04
2022-10-23T02:44:24.100Z,1011.00
2022-10-23T02:45:24.118Z,1011.02
2022-10-23T02:46:24.124Z,1011.02
2022-10-23T02:47:24.071Z,1011.06
2022-10-23T02:48:24.070Z,1011.01
2022-10-23T02:49:24.053Z,1010.99
2022-10-23T02:50:24.022Z,1011.00
2022-10-23T02:51:24.035Z,1010.95
2022-10-23T02:52:24.024Z,1010.91
2022-10-23T02:53:24.006Z,1010.96
2022-10-23T02:54:23.985Z,1010.92
2022-10-23T02:55:23.963Z,1010.92
2022-10-23T02:56:23.973Z,1010.89
2022-10-23T02:57:23.925Z,1010.87
2022-10-23T02:58:24.031Z,1010.80
2022-10-23T02:59:23.928Z,1010.78
2022-10-23T03:00:23.890Z,1010.79
2022-10-23T03:01:23.967Z,1010.81
2022-10-23T03:02:23.985Z,1010.79
2022-10-23T03:03:23.856Z,1010.74
2022-10-23T03:04:23.960Z,1010.74
2022-10-23T03:05:23.830Z,1010.73
2022-10-23T03:06:23.809Z,1010.77
2022-10-23T03:07:23.810Z,1010.73
2022-10-23T03:08:23.776Z,1010.74
2022-10-23T03:09:23.782Z,1010.72
2022-10-23T03:10:23.882Z,1010.72
2022-10-23T03:11:23.739Z,1010.73
2022-10-23T03:12:23.730Z,1010.70
2022-10-23T03:13:23.739Z,1010.72
2022-10-23T03:14:23.715Z,1010.71
2022-10-23T03:15:23.689Z,1010.72
2022-10-23T03:16:23.803Z,1010.71
2022-10-23T03:17:23.660Z,1010.70
2022-10-23T03:18:23.643Z,1010.70
2022-10-23T03:19:23.658Z,1010.65
2022-10-23T03:20:23.613Z,1010.64
2022-10-23T03:21:23.628Z,1010.64
2022-10-23T03:22:23.632Z,1010.64
2022-10-23T03:23:23.581Z,1010.63
2022-10-23T03:24:23.591Z,1010.65
2022-10-23T03:25:23.560Z,1010.62
2022-10-23T03:26:23.533Z,1010.62
2022-10-23T03:27:23.590Z,1010.68
2022-10-23T03:28:23.555Z,1010.62
2022-10-23T03:29:23.503Z,1010.58
2022-10-23T03:30:23.483Z,1010.57
2022-10-23T03:31:23.505Z,1010.59
2022-10-23T03:32:23.456Z,1010.54
2022-10-23T03:33:23.476Z,1010.54
2022-10-23T03:34:23.567Z,1010.54
2022-10-23T03:35:23.415Z,1010.51
2022-10-23T03:36:23.424Z,1010.52
2022-10-23T03:37:23.394Z,1010.52
2022-10-23T03:38:23.378Z,1010.55
2022-10-23T03:39:23.381Z,1010.54
2022-10-23T03:40:23.379Z,1010.55
2022-10-23T03:41:23.360Z,1010.60
2022-10-23T03:42:23.339Z,1010.58
2022-10-23T03:43:23.318Z,1010.63
2022-10-23T03:44:23.296Z,1010.60
2022-10-23T03:45:23.313Z,1010.63
2022-10-23T03:46:23.401Z,1010.58
2022-10-23T03:47:23.265Z,1010.61
2022-10-23T03:48:23.260Z,1010.70
2022-10-23T03:49:23.241Z,1010.64
2022-10-23T03:50:23.226Z,1010.68
2022-10-23T03:51:23.223Z,1010.61
2022-10-23T03:53:23.216Z,1010.60
2022-10-23T03:54:23.182Z,1010.55
2022-10-23T03:55:23.160Z,1010.57
2022-10-23T03:56:23.155Z,1010.57
2022-10-23T03:57:23.141Z,1010.49
2022-10-23T03:58:23.241Z,1010.56
2022-10-23T03:59:23.114Z,1010.56
2022-10-23T04:00:23.093Z,1010.56
2022-10-23T04:01:23.149Z,1010.55
2022-10-23T04:02:23.111Z,1010.53
2022-10-23T04:03:23.052Z,1010.51
2022-10-23T04:04:23.076Z,1010.52
2022-10-23T04:05:23.035Z,1010.56
2022-10-23T04:06:23.013Z,1010.52
2022-10-23T04:07:23.021Z,1010.53
2022-10-23T04:08:22.994Z,1010.51
2022-10-23T04:09:22.987Z,1010.55
2022-10-23T04:10:23.010Z,1010.55
2022-10-23T04:11:22.957Z,1010.52
2022-10-23T04:12:22.940Z,1010.56
2022-10-23T04:13:22.932Z,1010.58
2022-10-23T04:25:08.396Z,1010.54
2022-10-23T05:25:37.885Z,1010.18
2022-10-23T05:26:57.143Z,1010.18
2022-10-23T05:29:38.381Z,1010.14
2022-10-23T05:31:06.116Z,1010.15
2022-10-23T05:33:25.244Z,1010.17
2022-10-23T05:39:35.480Z,1010.06
2022-10-23T05:40:18.699Z,1010.13
2022-10-23T05:41:40.107Z,1010.14
2022-10-23T05:49:11.120Z,1010.13
2022-10-23T05:50:19.000Z,1010.11
2022-10-23T05:51:14.089Z,1010.04
2022-10-23T05:52:43.099Z,1010.09
2022-10-23T05:53:19.733Z,1010.08
2022-10-23T05:56:47.653Z,1010.01
2022-10-23T05:57:52.894Z,1009.94
2022-10-23T06:03:58.349Z,1009.81
2022-10-23T06:05:06.680Z,1009.76
2022-10-23T06:11:34.247Z,1009.84
2022-10-23T06:38:51.877Z,1009.53
2022-10-23T06:52:45.805Z,1009.63
2022-10-23T06:53:07.322Z,1009.60
2022-10-23T06:54:06.053Z,1009.63
2022-10-23T06:55:06.294Z,1009.65
2022-10-23T06:56:06.032Z,1009.66
2022-10-23T06:57:06.715Z,1009.63
2022-10-23T06:58:06.061Z,1009.64
2022-10-23T06:59:05.984Z,1009.65
2022-10-23T07:00:06.824Z,1009.64
2022-10-23T07:01:20.392Z,1009.69
2022-10-23T07:02:18.041Z,1009.67
2022-10-23T07:03:05.937Z,1009.67
2022-10-23T07:04:12.695Z,1009.65
2022-10-23T07:05:08.729Z,1009.65
2022-10-23T07:06:12.730Z,1009.63
2022-10-23T07:07:06.151Z,1009.62
2022-10-23T07:08:10.502Z,1009.59
2022-10-23T07:09:06.675Z,1009.61
2022-10-23T07:10:06.646Z,1009.54
2022-10-23T07:11:05.796Z,1009.54
2022-10-23T07:12:06.698Z,1009.53
2022-10-23T07:13:06.085Z,1009.57
2022-10-23T07:14:06.018Z,1009.58
2022-10-23T07:15:06.044Z,1009.61
2022-10-23T07:16:09.977Z,1009.59
2022-10-23T07:17:10.931Z,1009.58
2022-10-23T07:18:10.455Z,1009.62
2022-10-23T07:19:05.925Z,1009.62
2022-10-23T07:20:06.453Z,1009.64
2022-10-23T07:21:06.432Z,1009.61
2022-10-23T07:22:05.948Z,1009.64
2022-10-23T07:23:06.393Z,1009.61
2022-10-23T07:24:30.643Z,1009.63
2022-10-23T07:25:06.405Z,1009.68
2022-10-23T07:26:05.919Z,1009.63
2022-10-23T07:27:06.084Z,1009.62
2022-10-23T07:28:09.590Z,1009.63
2022-10-23T07:29:16.821Z,1009.62
2022-10-23T07:30:06.414Z,1009.60
2022-10-23T07:31:09.812Z,1009.62
2022-10-23T07:32:07.173Z,1009.63
2022-10-23T07:33:15.713Z,1009.67
2022-10-23T07:34:06.400Z,1009.69
2022-10-23T07:35:06.489Z,1009.68
2022-10-23T07:36:05.765Z,1009.68
2022-10-23T07:37:05.433Z,1009.70
2022-10-23T07:38:10.175Z,1009.69
2022-10-23T07:39:06.705Z,1009.71
2022-10-23T07:40:07.196Z,1009.68
2022-10-23T07:41:08.891Z,1009.65
2022-10-23T07:42:06.643Z,1009.61
2022-10-23T07:43:06.391Z,1009.59
2022-10-23T07:44:05.720Z,1009.50
2022-10-23T07:45:06.309Z,1009.47
2022-10-23T07:46:10.939Z,1009.50
2022-10-23T07:47:07.550Z,1009.51
2022-10-23T07:48:05.307Z,1009.54
2022-10-23T07:49:15.407Z,1009.60
2022-10-23T07:50:06.177Z,1009.58
2022-10-23T07:51:05.239Z,1009.62
2022-10-23T07:52:05.238Z,1009.63
2022-10-23T07:53:05.257Z,1009.63
2022-10-23T07:54:05.190Z,1009.61
2022-10-23T07:55:05.197Z,1009.66
2022-10-23T07:56:05.161Z,1009.70
2022-10-23T07:57:05.141Z,1009.68
2022-10-23T07:58:05.142Z,1009.68
2022-10-23T07:59:05.233Z,1009.63
2022-10-23T08:00:05.122Z,1009.66
2022-10-23T08:01:05.149Z,1009.68
2022-10-23T08:02:05.151Z,1009.66
2022-10-23T08:03:05.068Z,1009.57
2022-10-23T08:04:05.069Z,1009.60
2022-10-23T08:05:05.203Z,1009.58
2022-10-23T08:06:05.032Z,1009.53
2022-10-23T08:07:05.016Z,1009.53
2022-10-23T08:08:05.007Z,1009.50
2022-10-23T08:09:06.614Z,1009.52
2022-10-23T08:10:04.986Z,1009.51
2022-10-23T08:11:05.056Z,1009.48
2022-10-23T08:12:04.955Z,1009.47
2022-10-23T08:13:04.938Z,1009.41
2022-10-23T08:14:04.912Z,1009.42
2022-10-23T08:15:04.903Z,1009.36
2022-10-23T08:16:04.896Z,1009.33
2022-10-23T08:17:05.414Z,1009.33
2022-10-23T08:18:04.865Z,1009.30
2022-10-23T08:19:04.863Z,1009.32
2022-10-23T08:20:04.870Z,1009.29
2022-10-23T08:21:04.834Z,1009.20
2022-10-23T08:22:04.821Z,1009.28
2022-10-23T08:23:04.897Z,1009.26
2022-10-23T08:24:04.780Z,1009.29
2022-10-23T08:25:04.771Z,1009.25
2022-10-23T08:26:04.759Z,1009.26
2022-10-23T08:27:04.750Z,1009.20
2022-10-23T08:28:06.325Z,1009.21
2022-10-23T08:29:04.840Z,1009.20
2022-10-23T08:30:04.710Z,1009.17
2022-10-23T08:31:04.687Z,1009.10
2022-10-23T08:32:04.682Z,1009.13
2022-10-23T08:33:04.663Z,1009.11
2022-10-23T08:34:04.634Z,1009.10
2022-10-23T08:35:04.744Z,1009.07
2022-10-23T08:36:04.602Z,1009.12
2022-10-23T08:37:04.591Z,1009.11
2022-10-23T08:38:04.606Z,1009.07
2022-10-23T08:39:04.562Z,1009.10
2022-10-23T08:40:04.565Z,1009.09
2022-10-23T08:41:04.577Z,1009.08
2022-10-23T08:42:04.564Z,1009.09
2022-10-23T08:43:04.525Z,1009.11
2022-10-23T08:44:04.503Z,1009.10
2022-10-23T08:45:04.482Z,1009.14
2022-10-23T08:46:07.322Z,1009.13
2022-10-23T08:47:04.584Z,1009.08
2022-10-23T08:48:04.455Z,1009.08
2022-10-23T08:49:04.425Z,1009.13
2022-10-23T08:50:04.437Z,1009.08
2022-10-23T08:51:04.399Z,1009.14
2022-10-23T08:52:04.407Z,1009.09
2022-10-23T08:53:04.410Z,1009.05
2022-10-23T08:54:04.411Z,1009.06
2022-10-23T08:55:04.367Z,1009.04
2022-10-23T08:56:04.330Z,1009.05
2022-10-23T08:57:04.310Z,1009.06
2022-10-23T08:58:04.320Z,1009.02
2022-10-23T08:59:04.420Z,1009.04
2022-10-23T09:00:04.303Z,1009.07
2022-10-23T09:01:04.342Z,1009.06
2022-10-23T09:02:04.336Z,1009.04
2022-10-23T09:03:04.268Z,1009.01
2022-10-23T09:04:04.243Z,1009.04
2022-10-23T09:05:04.353Z,1009.09
2022-10-23T09:06:04.201Z,1009.08
2022-10-23T09:07:04.238Z,1009.10
2022-10-23T09:08:04.191Z,1009.11
2022-10-23T09:09:04.172Z,1009.08
2022-10-23T09:10:04.170Z,1009.10
2022-10-23T09:11:04.242Z,1009.09
2022-10-23T09:12:04.145Z,1009.09
2022-10-23T09:13:04.107Z,1009.13
2022-10-23T09:14:04.082Z,1009.14
2022-10-23T09:15:04.088Z,1009.07
2022-10-23T09:16:06.754Z,1009.07
2022-10-23T09:17:05.534Z,1009.03
2022-10-23T09:18:04.779Z,1009.03
2022-10-23T09:19:05.228Z,1008.98
2022-10-23T09:20:04.005Z,1009.00
2022-10-23T09:21:03.986Z,1008.95
2022-10-23T09:22:03.989Z,1008.91
2022-10-23T09:23:03.987Z,1008.89
2022-10-23T09:24:03.978Z,1008.86
2022-10-23T09:25:03.947Z,1008.85
2022-10-23T09:26:03.918Z,1008.85
2022-10-23T09:28:05.608Z,1008.89
2022-10-23T09:29:03.987Z,1008.88
2022-10-23T09:30:03.882Z,1008.89
2022-10-23T09:31:03.853Z,1008.95
2022-10-23T09:32:03.853Z,1008.96
2022-10-23T09:33:03.837Z,1008.91
2022-10-23T09:34:04.324Z,1008.88
2022-10-23T09:35:03.840Z,1008.92
2022-10-23T09:36:03.793Z,1008.91
2022-10-23T09:37:03.784Z,1008.90
2022-10-23T09:38:03.757Z,1008.88
2022-10-23T09:39:03.756Z,1008.88
2022-10-23T09:40:03.724Z,1008.84
2022-10-23T09:41:03.751Z,1008.88
2022-10-23T09:42:03.713Z,1008.83
2022-10-23T09:43:03.692Z,1008.76
2022-10-23T09:44:03.690Z,1008.70
2022-10-23T09:45:03.676Z,1008.69
2022-10-23T09:46:03.642Z,1008.66
2022-10-23T09:47:03.797Z,1008.62
2022-10-23T09:48:03.614Z,1008.62
2022-10-23T09:49:05.724Z,1008.61
2022-10-23T09:50:03.606Z,1008.59
2022-10-23T09:51:04.560Z,1008.65
2022-10-23T09:52:03.564Z,1008.68
2022-10-23T09:53:03.666Z,1008.67
2022-10-23T09:54:03.549Z,1008.59
2022-10-23T09:55:03.537Z,1008.62
2022-10-23T09:56:03.520Z,1008.57
2022-10-23T09:57:03.511Z,1008.56
2022-10-23T09:58:03.497Z,1008.53
2022-10-23T09:59:03.511Z,1008.54
2022-10-23T10:00:03.448Z,1008.46
2022-10-23T10:01:03.541Z,1008.44
2022-10-23T10:02:03.505Z,1008.47
2022-10-23T10:03:03.428Z,1008.42
2022-10-23T10:04:03.411Z,1008.45
2022-10-23T10:05:03.442Z,1008.48
2022-10-23T10:06:03.371Z,1008.49
2022-10-23T10:07:03.367Z,1008.48
2022-10-23T10:08:03.355Z,1008.47
2022-10-23T10:09:03.346Z,1008.43
2022-10-23T10:10:03.311Z,1008.37
2022-10-23T10:11:03.357Z,1008.38
2022-10-23T10:12:03.292Z,1008.37
2022-10-23T10:13:03.282Z,1008.40
2022-10-23T10:14:03.278Z,1008.42
2022-10-23T10:15:03.252Z,1008.45
2022-10-23T10:16:03.247Z,1008.45
2022-10-23T10:17:03.299Z,1008.40
2022-10-23T10:18:03.207Z,1008.39
2022-10-23T10:19:03.216Z,1008.35
2022-10-23T10:20:06.668Z,1008.28
2022-10-23T10:21:03.175Z,1008.27
2022-10-23T10:22:03.180Z,1008.30
2022-10-23T10:23:03.269Z,1008.29
2022-10-23T10:24:03.956Z,1008.30
2022-10-23T10:25:03.126Z,1008.26
2022-10-23T10:26:03.120Z,1008.21
2022-10-23T10:27:03.098Z,1008.19
2022-10-23T10:28:03.100Z,1008.22
2022-10-23T10:29:03.203Z,1008.21
2022-10-23T10:30:03.061Z,1008.19
2022-10-23T10:31:03.053Z,1008.22
2022-10-23T10:32:03.020Z,1008.21
2022-10-23T10:33:03.009Z,1008.15
2022-10-23T10:34:03.282Z,1008.15
2022-10-23T10:35:03.009Z,1008.11
2022-10-23T10:36:03.014Z,1008.10
2022-10-23T10:37:03.002Z,1008.12
2022-10-23T10:38:02.950Z,1008.15
2022-10-23T10:39:02.944Z,1008.12
2022-10-23T10:40:02.916Z,1008.09
2022-10-23T10:41:02.952Z,1008.07
2022-10-23T10:42:02.896Z,1008.08
2022-10-23T10:43:02.883Z,1008.07
2022-10-23T10:44:02.867Z,1008.05
2022-10-23T10:45:02.867Z,1008.06
2022-10-23T10:46:02.854Z,1008.03
2022-10-23T10:47:02.959Z,1007.97
2022-10-23T10:48:02.814Z,1008.00
2022-10-23T10:49:02.795Z,1008.00
2022-10-23T10:50:02.837Z,1007.98
2022-10-23T10:51:02.768Z,1008.01
2022-10-23T10:52:02.771Z,1007.96
2022-10-23T10:53:02.870Z,1007.94
2022-10-23T10:54:02.726Z,1007.94
2022-10-23T10:55:02.718Z,1007.94
2022-10-23T10:56:02.744Z,1007.92
2022-10-23T10:57:02.712Z,1007.92
2022-10-23T10:58:02.689Z,1007.89
2022-10-23T10:59:02.712Z,1007.93
2022-10-23T11:00:02.650Z,1007.92
2022-10-23T11:01:02.699Z,1007.92
2022-10-23T11:02:02.733Z,1007.91
2022-10-23T11:03:02.601Z,1007.93
2022-10-23T11:04:02.609Z,1007.90
2022-10-23T11:05:02.716Z,1007.84
2022-10-23T11:06:02.575Z,1007.82
2022-10-23T11:07:02.582Z,1007.79
2022-10-23T11:08:02.531Z,1007.81
2022-10-23T11:09:19.442Z,1007.75
2022-10-23T11:10:03.630Z,1007.73
2022-10-23T11:11:02.507Z,1007.67
2022-10-23T11:12:02.510Z,1007.70
2022-10-23T11:13:02.475Z,1007.65
2022-10-23T11:14:02.461Z,1007.65
2022-10-23T11:15:02.434Z,1007.64
2022-10-23T11:16:02.549Z,1007.62
2022-10-23T11:17:02.434Z,1007.61
2022-10-23T11:18:02.397Z,1007.64
2022-10-23T11:19:02.399Z,1007.63
2022-10-23T11:20:02.384Z,1007.56
2022-10-23T11:21:02.367Z,1007.53
2022-10-23T11:22:02.483Z,1007.49
2022-10-23T11:23:02.333Z,1007.45
2022-10-23T11:24:02.354Z,1007.38
2022-10-23T11:25:02.315Z,1007.34
2022-10-23T11:26:02.279Z,1007.29
2022-10-23T11:27:02.276Z,1007.24
2022-10-23T11:28:04.492Z,1007.21
2022-10-23T11:29:02.262Z,1007.19
2022-10-23T11:30:02.221Z,1007.19
2022-10-23T11:31:02.232Z,1007.18
2022-10-23T11:32:02.200Z,1007.20
2022-10-23T11:33:02.192Z,1007.22
2022-10-23T11:34:02.294Z,1007.18
2022-10-23T11:35:02.162Z,1007.16
2022-10-23T11:36:02.156Z,1007.15
2022-10-23T11:37:02.146Z,1007.11
2022-10-23T11:38:02.115Z,1007.14
2022-10-23T11:39:02.125Z,1007.10
2022-10-23T11:40:02.203Z,1007.08
2022-10-23T11:41:02.094Z,1007.12
2022-10-23T11:42:02.080Z,1007.05
2022-10-23T11:43:02.076Z,1007.05
2022-10-23T11:44:02.048Z,1007.08
2022-10-23T11:45:02.039Z,1007.07
2022-10-23T11:46:02.126Z,1007.07
2022-10-23T11:47:02.014Z,1007.05
2022-10-23T11:48:01.977Z,1007.03
2022-10-23T11:49:01.999Z,1007.06
2022-10-23T11:50:01.969Z,1007.00
2022-10-23T11:51:05.022Z,1007.01
2022-10-23T11:52:02.070Z,1006.97
2022-10-23T11:53:13.712Z,1006.93
2022-10-23T11:54:02.900Z,1006.95
2022-10-23T11:55:01.903Z,1006.87
2022-10-23T11:56:01.871Z,1006.88
2022-10-23T11:57:01.861Z,1006.86
2022-10-23T11:58:01.875Z,1006.87
2022-10-23T11:59:01.844Z,1006.85
2022-10-23T12:00:01.811Z,1006.77
2022-10-23T12:01:01.823Z,1006.79
2022-10-23T12:02:01.824Z,1006.73
2022-10-23T12:03:01.833Z,1006.70
2022-10-23T12:04:01.797Z,1006.65
2022-10-23T12:05:01.776Z,1006.66
2022-10-23T12:06:01.736Z,1006.62
2022-10-23T12:07:01.738Z,1006.60
2022-10-23T12:08:01.706Z,1006.54
2022-10-23T12:09:01.695Z,1006.52
2022-10-23T12:10:01.800Z,1006.54
2022-10-23T12:11:01.666Z,1006.52
2022-10-23T12:12:01.660Z,1006.46
2022-10-23T12:13:01.662Z,1006.43
2022-10-23T12:14:01.628Z,1006.41
2022-10-23T12:15:01.615Z,1006.33
2022-10-23T12:16:01.738Z,1006.30
2022-10-23T12:17:01.601Z,1006.29
2022-10-23T12:18:01.568Z,1006.20
2022-10-23T12:19:01.573Z,1006.18
2022-10-23T12:20:01.619Z,1006.20
2022-10-23T12:21:01.540Z,1006.18
2022-10-23T12:22:01.648Z,1006.12
2022-10-23T12:23:01.503Z,1006.16
2022-10-23T12:24:01.503Z,1006.09
2022-10-23T12:25:01.495Z,1006.10
2022-10-23T12:26:01.461Z,1006.03
2022-10-23T12:27:01.464Z,1006.01
2022-10-23T12:28:01.462Z,1006.00
2022-10-23T12:29:01.428Z,1006.02
2022-10-23T12:30:01.416Z,1005.98
2022-10-23T12:31:01.407Z,1006.02
2022-10-23T12:32:01.383Z,1006.05
2022-10-23T12:33:01.371Z,1005.98
2022-10-23T12:34:01.487Z,1005.97
2022-10-23T12:35:01.344Z,1005.98
2022-10-23T12:36:01.339Z,1006.01
2022-10-23T12:37:01.331Z,1005.97
2022-10-23T12:38:01.296Z,1005.98
2022-10-23T12:39:01.300Z,1005.94
2022-10-23T12:40:01.388Z,1005.84
2022-10-23T12:41:01.261Z,1005.87
2022-10-23T12:42:01.259Z,1005.83
2022-10-23T12:43:01.228Z,1005.85
2022-10-23T12:44:01.236Z,1005.86
2022-10-23T12:45:01.220Z,1005.82
2022-10-23T12:46:01.209Z,1005.80
2022-10-23T12:47:01.200Z,1005.87
2022-10-23T12:48:01.160Z,1005.89
2022-10-23T12:49:01.159Z,1005.95
2022-10-23T12:50:01.145Z,1005.90
2022-10-23T12:51:01.125Z,1005.85
2022-10-23T12:52:01.155Z,1005.88
2022-10-23T12:53:01.116Z,1005.82
2022-10-23T12:54:01.081Z,1005.81
2022-10-23T12:55:01.077Z,1005.87
2022-10-23T12:57:01.043Z,1005.80
2022-10-23T12:58:01.150Z,1005.78
2022-10-23T12:59:01.003Z,1005.76
2022-10-23T13:00:01.010Z,1005.75
2022-10-23T13:01:01.100Z,1005.72
2022-10-23T13:02:01.099Z,1005.68
2022-10-23T13:03:00.967Z,1005.64
2022-10-23T13:04:00.987Z,1005.58
2022-10-23T13:06:12.033Z,1005.51
2022-10-23T13:07:11.965Z,1005.51
2022-10-23T13:08:11.946Z,1005.48
2022-10-23T13:09:12.300Z,1005.43
2022-10-23T13:10:11.922Z,1005.42
2022-10-23T13:11:11.898Z,1005.39
2022-10-23T13:12:15.746Z,1005.34
2022-10-23T13:13:12.899Z,1005.28
2022-10-23T13:14:11.866Z,1005.27
2022-10-23T13:15:11.955Z,1005.27
2022-10-23T13:16:11.858Z,1005.21
2022-10-23T13:17:11.862Z,1005.15
2022-10-23T13:18:11.816Z,1005.18
2022-10-23T13:19:11.824Z,1005.11
2022-10-23T13:20:11.790Z,1005.14
2022-10-23T13:21:11.806Z,1005.14
2022-10-23T13:22:11.765Z,1005.17
2022-10-23T13:23:11.759Z,1005.14
2022-10-23T13:24:11.750Z,1005.11
2022-10-23T13:25:11.753Z,1005.10
2022-10-23T13:26:11.732Z,1005.07
2022-10-23T13:27:11.819Z,1004.99
2022-10-23T13:28:11.671Z,1004.99
2022-10-23T13:29:11.739Z,1004.97
2022-10-23T13:30:11.779Z,1004.98
2022-10-23T13:31:11.650Z,1004.95
2022-10-23T13:32:11.646Z,1004.96
2022-10-23T13:33:11.720Z,1004.95
2022-10-23T13:34:11.624Z,1004.90
2022-10-23T13:35:21.511Z,1004.91
2022-10-23T13:36:12.584Z,1004.96
2022-10-23T13:37:11.577Z,1004.93
2022-10-23T13:38:11.538Z,1004.98
2022-10-23T13:39:11.659Z,1004.97
2022-10-23T13:40:11.532Z,1004.96
2022-10-23T13:41:13.566Z,1004.98
2022-10-23T13:42:12.239Z,1004.98
2022-10-23T13:43:11.730Z,1005.07
2022-10-23T13:44:12.351Z,1005.13
2022-10-23T13:45:12.048Z,1005.14
2022-10-23T13:46:15.443Z,1005.20
2022-10-23T13:47:15.440Z,1005.18
2022-10-23T13:48:12.671Z,1005.13
2022-10-23T13:49:11.405Z,1005.15
2022-10-23T13:50:11.392Z,1005.08
2022-10-23T13:51:11.486Z,1005.05
2022-10-23T13:52:11.386Z,1005.06
2022-10-23T13:53:11.614Z,1005.06
2022-10-23T13:54:11.334Z,1005.03
2022-10-23T13:55:11.292Z,1005.03
2022-10-23T13:56:11.287Z,1005.08
2022-10-23T13:57:11.304Z,1005.10
2022-10-23T13:58:11.275Z,1005.08
2022-10-23T13:59:11.240Z,1005.01
2022-10-23T14:00:11.229Z,1004.98
2022-10-23T14:01:11.278Z,1004.97
2022-10-23T14:02:11.260Z,1004.96
2022-10-23T14:03:11.219Z,1004.97
2022-10-23T14:04:11.192Z,1004.91
2022-10-23T14:05:11.165Z,1004.96
2022-10-23T14:06:11.164Z,1004.89
2022-10-23T14:07:11.126Z,1004.76
2022-10-23T14:08:11.292Z,1004.73
2022-10-23T14:09:11.237Z,1004.62
2022-10-23T14:10:11.088Z,1004.60
2022-10-23T14:11:11.103Z,1004.58
2022-10-23T14:12:11.083Z,1004.64
2022-10-23T14:13:11.049Z,1004.61
2022-10-23T14:14:11.028Z,1004.60
2022-10-23T14:15:11.154Z,1004.58
2022-10-23T14:16:11.038Z,1004.56
2022-10-23T14:17:10.999Z,1004.50
2022-10-23T14:18:10.991Z,1004.45
2022-10-23T14:19:10.983Z,1004.35
2022-10-23T14:20:10.971Z,1004.29
2022-10-23T14:21:10.992Z,1004.24
2022-10-23T14:22:10.921Z,1004.18
2022-10-23T14:23:10.925Z,1004.14
2022-10-23T14:24:10.916Z,1004.06
2022-10-23T14:25:10.894Z,1003.99
2022-10-23T14:26:10.877Z,1003.94
2022-10-23T14:27:11.012Z,1003.92
2022-10-23T14:28:10.835Z,1004.00